Time;durP1;ratioP1;P1;durP2;ratioP2;P2;SDS_P1;SDS_P2;PMS_P1;PMS_P2;Temp;Humidity;BMP_temperature;BMP_pressure;BME280_temperature;BME280_humidity;BME280_pressure;Samples;Min_cycle;Max_cycle;Signal;HPM_P1;HPM_P2
2022/03/17 00:01:30;;;;;;;16.85;12.20;;;8.60;58.00;;;;;;5121254;28;20123;-68
2022/03/17 00:03:56;;;;;;;16.02;11.35;;;8.70;58.00;;;;;;5121203;28;20058;-67
2022/03/17 00:06:22;;;;;;;15.27;11.68;;;8.70;57.90;;;;;;5119832;28;20027;-67
2022/03/17 00:08:48;;;;;;;19.67;12.43;;;8.70;58.10;;;;;;5121182;28;20337;-68
2022/03/17 00:11:14;;;;;;;17.55;11.55;;;8.70;58.30;;;;;;5121069;28;20027;-67
2022/03/17 00:13:39;;;;;;;16.92;12.13;;;8.60;58.20;;;;;;5121062;28;20023;-67
2022/03/17 00:16:06;;;;;;;17.08;12.88;;;8.60;58.60;;;;;;5120969;28;20331;-67
2022/03/17 00:18:32;;;;;;;18.42;12.85;;;8.70;58.40;;;;;;5120119;28;20048;-67
2022/03/17 00:20:58;;;;;;;17.02;12.48;;;8.60;58.40;;;;;;5121013;27;20065;-68
2022/03/17 00:23:23;;;;;;;16.02;11.65;;;8.70;58.30;;;;;;5120895;28;20027;-69
2022/03/17 00:25:49;;;;;;;16.98;12.18;;;8.70;58.30;;;;;;5120792;28;20039;-68
2022/03/17 00:28:14;;;;;;;19.55;12.63;;;8.70;58.10;;;;;;5120790;28;20027;-68
2022/03/17 00:30:40;;;;;;;21.65;15.00;;;8.70;58.50;;;;;;5120791;28;20553;-67
2022/03/17 00:33:06;;;;;;;22.08;14.43;;;8.80;59.40;;;;;;5120744;28;20215;-67
2022/03/17 00:35:42;;;;;;;17.17;13.02;;;8.80;58.70;;;;;;5120698;28;20228;-68
2022/03/17 00:38:15;;;;;;;26.80;15.13;;;8.80;58.50;;;;;;5120717;28;20313;-66
2022/03/17 00:40:42;;;;;;;20.35;14.77;;;8.70;58.30;;;;;;5120667;28;20047;-66
2022/03/17 00:43:12;;;;;;;18.80;13.93;;;8.70;58.70;;;;;;5120635;28;20023;-67
2022/03/17 00:45:38;;;;;;;;;;;8.60;59.20;;;;;;5120988;28;20047;-66
2022/03/17 00:48:05;;;;;;;18.60;13.38;;;8.70;59.00;;;;;;5120576;28;19960;-66
2022/03/17 00:50:31;;;;;;;20.25;14.02;;;8.60;58.70;;;;;;5120524;28;20032;-66
2022/03/17 00:52:56;;;;;;;19.70;14.02;;;8.50;58.40;;;;;;5120528;28;20115;-66
2022/03/17 00:55:23;;;;;;;20.38;14.18;;;8.60;58.60;;;;;;5120453;28;20023;-66
2022/03/17 00:57:49;;;;;;;24.02;13.95;;;8.50;58.40;;;;;;5120490;28;20079;-67
2022/03/17 01:00:16;;;;;;;22.38;13.52;;;8.50;58.30;;;;;;5120432;28;20218;-66
2022/03/17 01:02:47;;;;;;;19.02;14.25;;;8.50;58.40;;;;;;5120445;28;20095;-65
2022/03/17 01:05:14;;;;;;;20.27;13.80;;;8.50;58.50;;;;;;5120315;28;20028;-66
2022/03/17 01:07:40;;;;;;;20.83;13.32;;;8.50;58.20;;;;;;5120378;28;20028;-67
2022/03/17 01:10:07;;;;;;;17.65;13.77;;;8.40;58.20;;;;;;5120322;28;20023;-66
2022/03/17 01:12:33;;;;;;;21.90;14.40;;;8.40;58.00;;;;;;5120337;28;20012;-66
2022/03/17 01:15:00;;;;;;;20.10;12.57;;;8.40;58.30;;;;;;5120306;28;20027;-67
2022/03/17 01:17:26;;;;;;;20.52;14.10;;;8.30;57.80;;;;;;5120312;28;20090;-68
2022/03/17 01:19:51;;;;;;;20.98;13.27;;;8.30;58.10;;;;;;5120213;28;20073;-67
2022/03/17 01:22:17;;;;;;;22.65;13.95;;;8.30;58.30;;;;;;5120202;28;20378;-66
2022/03/17 01:24:45;;;;;;;20.52;14.35;;;8.30;58.10;;;;;;5120096;28;20032;-66
2022/03/17 01:27:11;;;;;;;22.40;15.50;;;8.30;58.50;;;;;;5120174;28;20050;-66
2022/03/17 01:29:43;;;;;;;19.08;13.93;;;8.30;58.60;;;;;;5122667;28;20023;-65
2022/03/17 01:32:09;;;;;;;21.35;14.55;;;8.40;58.50;;;;;;5124297;28;20016;-66
2022/03/17 01:34:34;;;;;;;20.30;14.43;;;8.30;58.80;;;;;;5124149;28;20432;-66
2022/03/17 01:37:00;;;;;;;25.30;15.68;;;8.30;58.90;;;;;;5124079;28;20019;-67
2022/03/17 01:39:26;;;;;;;22.98;15.35;;;8.30;59.00;;;;;;5124076;28;20020;-67
2022/03/17 01:41:55;;;;;;;19.77;14.30;;;8.30;58.90;;;;;;5124011;28;20185;-67
2022/03/17 01:44:21;;;;;;;23.83;16.00;;;8.30;58.80;;;;;;5123685;28;20240;-66
2022/03/17 01:49:31;;;;;;;28.98;16.00;;;8.30;58.80;;;;;;5123910;28;20058;-66
2022/03/17 01:51:56;;;;;;;22.90;15.23;;;8.30;58.40;;;;;;5123848;28;20086;-66
2022/03/17 01:54:24;;;;;;;23.02;15.13;;;8.30;58.50;;;;;;5123777;28;20031;-67
2022/03/17 01:56:51;;;;;;;23.02;14.15;;;8.20;58.40;;;;;;5123739;28;20516;-66
2022/03/17 01:59:17;;;;;;;18.40;13.90;;;8.20;58.30;;;;;;5123680;28;20023;-66
2022/03/17 02:01:45;;;;;;;21.98;15.20;;;8.20;58.10;;;;;;5123643;28;20011;-66
2022/03/17 02:04:11;;;;;;;21.10;14.18;;;8.20;58.20;;;;;;5123535;28;20031;-66
2022/03/17 02:06:37;;;;;;;20.65;15.52;;;8.20;58.10;;;;;;5123533;28;20109;-66
2022/03/17 02:09:03;;;;;;;20.80;15.25;;;8.10;58.00;;;;;;5123480;28;20024;-67
2022/03/17 02:14:14;;;;;;;20.67;14.63;;;8.20;58.10;;;;;;5123391;28;20010;-67
2022/03/17 02:16:40;;;;;;;23.15;16.13;;;8.10;57.90;;;;;;5122007;28;20379;-68
2022/03/17 02:19:06;;;;;;;24.02;14.90;;;8.20;58.10;;;;;;5123289;28;20083;-67
2022/03/17 02:21:34;;;;;;;22.23;15.30;;;8.20;58.10;;;;;;5123311;28;20099;-67
2022/03/17 02:26:45;;;;;;;23.48;15.35;;;8.20;58.10;;;;;;5123168;28;20075;-66
2022/03/17 02:29:12;;;;;;;20.95;14.88;;;8.10;57.90;;;;;;5123126;28;20047;-67
2022/03/17 02:31:38;;;;;;;22.25;15.20;;;8.10;57.90;;;;;;5123083;28;20386;-68
2022/03/17 02:34:03;;;;;;;24.20;15.50;;;8.10;57.90;;;;;;5123033;28;20027;-67
2022/03/17 02:36:29;;;;;;;20.85;15.48;;;8.10;57.90;;;;;;5122933;28;20041;-68
2022/03/17 02:38:55;;;;;;;24.98;15.43;;;8.10;57.80;;;;;;5122972;28;20095;-68
2022/03/17 02:41:23;;;;;;;24.35;15.70;;;8.00;57.90;;;;;;5120527;28;20024;-67
2022/03/17 02:43:55;;;;;;;24.10;15.38;;;8.00;57.80;;;;;;5122870;28;20055;-67
2022/03/17 02:46:21;;;;;;;21.55;15.30;;;8.00;57.90;;;;;;5122684;28;20028;-66
2022/03/17 02:48:48;;;;;;;22.77;16.00;;;8.10;57.60;;;;;;5122920;28;20115;-66
2022/03/17 02:51:13;;;;;;;20.60;14.65;;;8.00;57.30;;;;;;5121369;28;20306;-66
2022/03/17 02:53:39;;;;;;;23.88;16.00;;;7.90;57.40;;;;;;5122676;28;20027;-66
2022/03/17 02:56:05;;;;;;;22.70;14.38;;;7.90;57.30;;;;;;5122504;28;20046;-66
2022/03/17 02:58:31;;;;;;;22.83;14.13;;;7.80;57.30;;;;;;5122517;28;20250;-65
2022/03/17 03:00:57;;;;;;;22.77;15.50;;;7.90;57.50;;;;;;5122132;28;20023;-65
2022/03/17 03:03:23;;;;;;;22.55;15.27;;;7.90;57.30;;;;;;5122437;28;20030;-66
2022/03/17 03:05:49;;;;;;;22.95;15.25;;;7.80;57.30;;;;;;5122350;28;20023;-66
2022/03/17 03:08:15;;;;;;;23.98;14.52;;;7.80;57.00;;;;;;5122320;28;20020;-67
2022/03/17 03:10:42;;;;;;;21.25;13.75;;;7.80;57.10;;;;;;5122282;28;20016;-65
2022/03/17 03:13:10;;;;;;;20.75;13.85;;;7.80;56.90;;;;;;5122237;28;20347;-68
2022/03/17 03:15:36;;;;;;;23.83;15.85;;;7.80;56.90;;;;;;5122208;28;20102;-66
2022/03/17 03:18:02;;;;;;;20.35;14.48;;;7.80;56.90;;;;;;5120887;28;20031;-66
2022/03/17 03:20:28;;;;;;;22.77;15.48;;;7.80;56.90;;;;;;5122120;28;20323;-68
2022/03/17 03:22:54;;;;;;;21.55;15.15;;;7.70;56.70;;;;;;5122061;28;20023;-67
2022/03/17 03:25:19;;;;;;;22.17;14.95;;;7.60;56.60;;;;;;5121978;28;20039;-66
2022/03/17 03:27:45;;;;;;;21.80;14.55;;;7.60;56.60;;;;;;5121986;28;20023;-67
2022/03/17 03:30:12;;;;;;;19.67;13.55;;;7.60;56.70;;;;;;5121921;28;20208;-65
2022/03/17 03:32:39;;;;;;;20.23;14.30;;;7.60;56.60;;;;;;5121899;28;20075;-65
2022/03/17 03:37:51;;;;;;;19.23;13.85;;;7.50;56.10;;;;;;5121760;28;20392;-66
2022/03/17 03:40:17;;;;;;;22.30;13.98;;;7.50;56.20;;;;;;5121657;28;20032;-67
2022/03/17 03:42:43;;;;;;;21.27;15.13;;;7.50;57.00;;;;;;5121695;28;20133;-66
2022/03/17 03:45:09;;;;;;;19.67;13.93;;;7.50;56.20;;;;;;5121356;28;20055;-67
2022/03/17 03:47:34;;;;;;;19.15;13.40;;;7.40;56.10;;;;;;5121593;28;20032;-67
2022/03/17 03:50:01;;;;;;;20.73;13.75;;;7.50;56.00;;;;;;5121776;28;20027;-66
2022/03/17 03:52:27;;;;;;;23.90;14.65;;;7.40;56.30;;;;;;5121298;28;20095;-67
2022/03/17 03:54:52;;;;;;;18.67;13.73;;;7.50;56.20;;;;;;5121444;28;20056;-66
2022/03/17 03:57:18;;;;;;;20.50;14.63;;;7.50;56.50;;;;;;5121350;28;20019;-67
2022/03/17 03:59:44;;;;;;;23.15;14.02;;;7.50;56.70;;;;;;5121325;28;20031;-66
2022/03/17 04:02:10;;;;;;;20.30;14.32;;;7.50;56.90;;;;;;5121289;28;20029;-68
2022/03/17 04:04:40;;;;;;;23.33;14.57;;;7.50;56.90;;;;;;5121167;28;20031;-67
2022/03/17 04:07:08;;;;;;;20.65;14.25;;;7.50;56.90;;;;;;5121215;28;20082;-67
2022/03/17 04:09:38;;;;;;;21.67;14.95;;;7.50;56.80;;;;;;5121161;28;20023;-66
2022/03/17 04:12:04;;;;;;;21.10;14.25;;;7.60;56.50;;;;;;5121079;28;20040;-67
2022/03/17 04:14:31;;;;;;;22.65;13.85;;;7.60;56.30;;;;;;5121098;28;20007;-67
2022/03/17 04:16:57;;;;;;;24.15;14.80;;;7.50;56.40;;;;;;5120996;28;20023;-67
2022/03/17 04:19:23;;;;;;;19.17;13.73;;;7.40;56.00;;;;;;5120990;28;20090;-67
2022/03/17 04:21:49;;;;;;;21.52;14.52;;;7.40;56.10;;;;;;5120978;28;20019;-66
2022/03/17 04:24:16;;;;;;;22.65;14.23;;;7.40;56.00;;;;;;5120823;28;20019;-67
2022/03/17 04:26:42;;;;;;;22.20;14.25;;;7.40;55.80;;;;;;5120783;28;20198;-66
2022/03/17 04:29:09;;;;;;;21.80;15.45;;;7.40;56.00;;;;;;5120812;28;20011;-67
2022/03/17 04:31:39;;;;;;;19.13;13.27;;;7.40;55.80;;;;;;5120828;28;20323;-66
2022/03/17 04:34:06;;;;;;;19.98;13.18;;;7.20;55.40;;;;;;5120744;28;20024;-66
2022/03/17 04:36:32;;;;;;;19.40;12.75;;;7.20;55.20;;;;;;5120772;28;20035;-65
2022/03/17 04:39:02;;;;;;;19.70;13.80;;;7.20;55.10;;;;;;5120656;28;20411;-66
2022/03/17 04:41:28;;;;;;;20.95;13.52;;;7.20;55.10;;;;;;5120738;28;20016;-67
2022/03/17 04:43:54;;;;;;;18.80;12.90;;;7.10;55.40;;;;;;5119135;28;20051;-66
2022/03/17 04:46:20;;;;;;;18.70;13.30;;;7.10;55.20;;;;;;5120487;28;20019;-66
2022/03/17 04:48:46;;;;;;;19.10;13.07;;;7.20;55.30;;;;;;5120551;28;20034;-66
2022/03/17 04:51:12;;;;;;;19.38;13.40;;;7.20;55.30;;;;;;5120508;28;20204;-67
2022/03/17 04:53:38;;;;;;;17.90;13.48;;;7.20;55.50;;;;;;5120482;28;20241;-66
2022/03/17 04:56:09;;;;;;;22.25;14.45;;;7.10;55.20;;;;;;5120482;28;20024;-67
2022/03/17 04:58:37;;;;;;;19.33;13.52;;;7.20;55.20;;;;;;5120447;28;20021;-67
2022/03/17 05:01:04;;;;;;;21.60;14.77;;;7.20;55.20;;;;;;5120467;28;20208;-66
2022/03/17 05:03:31;;;;;;;24.50;15.10;;;7.20;55.50;;;;;;5118500;28;20024;-67
2022/03/17 05:05:57;;;;;;;22.42;14.82;;;7.20;55.60;;;;;;5120295;28;20028;-66
2022/03/17 05:08:23;;;;;;;20.58;13.32;;;7.20;55.60;;;;;;5120333;28;20035;-66
2022/03/17 05:10:52;;;;;;;21.48;14.18;;;7.20;55.40;;;;;;5120331;28;20024;-66
2022/03/17 05:13:19;;;;;;;30.58;17.73;;;7.10;55.40;;;;;;5120324;28;20026;-66
2022/03/17 05:15:46;;;;;;;32.53;18.35;;;7.20;55.70;;;;;;5118895;28;20049;-67
2022/03/17 05:18:12;;;;;;;30.20;18.27;;;7.20;55.70;;;;;;5120226;28;20020;-67
2022/03/17 05:20:40;;;;;;;30.05;17.92;;;7.20;55.50;;;;;;5120252;28;20090;-67
2022/03/17 05:23:15;;;;;;;30.10;19.08;;;7.20;55.50;;;;;;5120239;28;20032;-67
2022/03/17 05:25:42;;;;;;;25.92;16.60;;;7.20;55.40;;;;;;5120152;28;20035;-66
2022/03/17 05:28:09;;;;;;;28.17;17.60;;;7.10;55.70;;;;;;5120176;28;20490;-67
2022/03/17 05:30:35;;;;;;;27.35;16.42;;;7.10;55.50;;;;;;5120118;28;20042;-66
2022/03/17 05:33:01;;;;;;;23.52;15.50;;;7.10;55.60;;;;;;5120118;28;20024;-67
2022/03/17 05:35:27;;;;;;;27.13;17.15;;;7.20;55.90;;;;;;5120103;28;20248;-66
2022/03/17 05:37:54;;;;;;;25.63;16.42;;;7.20;55.40;;;;;;5118798;28;20023;-66
2022/03/17 05:40:21;;;;;;;28.60;16.92;;;7.20;55.50;;;;;;5120061;28;20016;-68
2022/03/17 05:42:53;;;;;;;24.02;16.10;;;7.00;54.70;;;;;;5120012;28;20023;-66
2022/03/17 05:45:20;;;;;;;25.60;16.17;;;6.90;54.80;;;;;;5119852;28;20088;-68
2022/03/17 05:47:50;;;;;;;22.63;16.08;;;6.90;55.00;;;;;;5120040;28;20027;-67
2022/03/17 05:50:21;;;;;;;23.95;16.08;;;7.00;54.90;;;;;;5119979;28;20419;-67
2022/03/17 05:52:48;;;;;;;22.88;14.85;;;6.90;54.80;;;;;;5120033;28;20051;-67
2022/03/17 05:55:16;;;;;;;24.63;15.45;;;6.90;55.00;;;;;;5119912;28;20019;-66
2022/03/17 05:57:45;;;;;;;23.90;15.77;;;6.90;54.80;;;;;;5119927;28;20023;-67
2022/03/17 06:00:13;;;;;;;21.33;14.50;;;6.90;54.90;;;;;;5119912;28;20275;-65
2022/03/17 06:02:39;;;;;;;23.52;14.95;;;6.90;54.60;;;;;;5119946;28;20027;-67
2022/03/17 06:05:06;;;;;;;21.17;14.95;;;6.90;54.70;;;;;;5119700;28;20019;-67
2022/03/17 06:07:43;;;;;;;21.95;14.38;;;6.90;54.70;;;;;;5119874;28;20312;-67
2022/03/17 06:10:14;;;;;;;20.75;14.05;;;6.80;54.60;;;;;;5119777;28;20066;-67
2022/03/17 06:12:40;;;;;;;20.83;14.15;;;6.80;54.60;;;;;;5119808;28;20024;-67
2022/03/17 06:15:07;;;;;;;22.85;15.05;;;6.80;54.80;;;;;;5119772;28;20275;-66
2022/03/17 06:17:48;;;;;;;20.33;14.63;;;6.80;54.90;;;;;;5123425;28;20039;-66
2022/03/17 06:20:19;;;;;;;20.33;14.38;;;6.80;54.90;;;;;;5123359;28;20080;-66
2022/03/17 06:22:48;;;;;;;19.60;14.20;;;6.90;54.90;;;;;;5123359;28;20307;-66
2022/03/17 06:25:16;;;;;;;22.95;15.25;;;6.90;54.90;;;;;;5123236;28;20028;-68
2022/03/17 06:27:43;;;;;;;25.20;15.43;;;6.90;55.10;;;;;;5123293;28;20035;-66
2022/03/17 06:30:12;;;;;;;24.45;16.20;;;6.80;55.60;;;;;;5123228;28;20042;-67
2022/03/17 06:32:39;;;;;;;24.52;15.77;;;6.90;55.40;;;;;;5123136;28;20020;-67
2022/03/17 06:35:10;;;;;;;23.42;15.68;;;7.00;55.20;;;;;;5123053;28;20196;-68
2022/03/17 06:37:39;;;;;;;22.33;15.82;;;7.00;55.50;;;;;;5121726;28;20028;-66
2022/03/17 06:40:05;;;;;;;;;;;7.00;55.30;;;;;;5122095;28;20319;-67
2022/03/17 06:42:31;;;;;;;28.17;17.75;;;7.00;55.60;;;;;;5122861;28;19907;-66
2022/03/17 06:44:57;;;;;;;29.83;19.38;;;7.10;56.10;;;;;;5122591;28;20160;-66
2022/03/17 06:47:22;;;;;;;28.75;21.15;;;7.20;55.90;;;;;;5122853;28;20027;-67
2022/03/17 06:49:48;;;;;;;27.88;19.05;;;7.20;56.60;;;;;;5122800;28;20494;-67
2022/03/17 06:52:14;;;;;;;26.55;19.45;;;7.30;56.00;;;;;;5122779;28;20323;-67
2022/03/17 06:54:39;;;;;;;27.80;19.45;;;7.30;56.00;;;;;;5122716;27;20042;-68
2022/03/17 06:57:05;;;;;;;24.08;17.20;;;7.30;56.30;;;;;;5122606;28;20023;-67
2022/03/17 06:59:31;;;;;;;22.42;15.38;;;7.40;57.10;;;;;;5122586;28;20205;-67
2022/03/17 07:01:57;;;;;;;20.80;15.68;;;7.40;56.40;;;;;;5122567;28;20027;-66
2022/03/17 07:04:22;;;;;;;22.88;15.73;;;7.50;56.70;;;;;;5122533;28;20359;-66
2022/03/17 07:06:48;;;;;;;22.15;15.57;;;7.40;56.70;;;;;;5122466;28;20034;-67
2022/03/17 07:09:14;;;;;;;17.95;14.07;;;7.40;56.90;;;;;;5122428;28;20028;-67
2022/03/17 07:11:40;;;;;;;20.58;14.80;;;7.30;57.00;;;;;;5122381;28;20103;-68
2022/03/17 07:14:05;;;;;;;22.35;15.30;;;7.30;57.40;;;;;;5122341;28;20024;-66
2022/03/17 07:16:31;;;;;;;23.08;15.25;;;7.40;57.80;;;;;;5122238;28;20031;-67
2022/03/17 07:18:57;;;;;;;21.58;14.90;;;7.50;58.10;;;;;;5122237;28;20319;-67
2022/03/17 07:21:23;;;;;;;19.63;14.73;;;7.60;58.40;;;;;;5122156;28;20027;-68
2022/03/17 07:23:48;;;;;;;21.48;16.05;;;7.60;58.70;;;;;;5122162;28;20215;-68
2022/03/17 07:26:14;;;;;;;21.30;15.93;;;7.70;59.10;;;;;;5120238;28;20085;-67
2022/03/17 07:28:40;;;;;;;21.70;16.00;;;7.90;59.10;;;;;;5122015;28;20083;-66
2022/03/17 07:31:06;;;;;;;21.40;15.60;;;8.00;59.30;;;;;;5122046;28;20286;-67
2022/03/17 07:33:34;;;;;;;18.98;15.05;;;8.10;59.50;;;;;;5121954;28;20030;-68
2022/03/17 07:36:00;;;;;;;23.02;15.75;;;8.10;59.60;;;;;;5121939;28;20088;-67
2022/03/17 07:38:26;;;;;;;22.05;15.50;;;8.20;59.30;;;;;;5121824;28;20031;-67
2022/03/17 07:40:51;;;;;;;22.67;15.82;;;8.20;59.30;;;;;;5120560;28;20106;-67
2022/03/17 07:43:17;;;;;;;21.52;15.65;;;8.20;59.20;;;;;;5121556;28;20027;-66
2022/03/17 07:45:43;;;;;;;22.35;15.95;;;8.30;59.30;;;;;;5121618;28;20043;-67
2022/03/17 07:48:08;;;;;;;21.67;14.68;;;8.40;60.50;;;;;;5120325;28;20089;-68
2022/03/17 07:50:34;;;;;;;21.65;15.75;;;8.40;60.30;;;;;;5121582;28;20064;-67
2022/03/17 07:53:00;;;;;;;23.25;16.42;;;8.60;61.00;;;;;;5121555;28;20022;-68
2022/03/17 07:55:27;;;;;;;24.52;16.05;;;8.70;60.50;;;;;;5121503;28;20034;-66
2022/03/17 07:57:53;;;;;;;26.17;15.73;;;8.80;59.90;;;;;;5121411;28;20019;-67
2022/03/17 08:00:19;;;;;;;22.25;14.90;;;8.90;59.60;;;;;;5121401;28;20335;-67
2022/03/17 08:02:44;;;;;;;21.02;15.35;;;9.10;59.30;;;;;;5121348;28;20125;-66
2022/03/17 08:05:12;;;;;;;21.92;15.65;;;9.10;59.80;;;;;;5121248;28;20035;-68
2022/03/17 08:07:38;;;;;;;22.08;15.95;;;9.20;59.20;;;;;;5121226;28;20061;-67
2022/03/17 08:10:05;;;;;;;21.58;15.32;;;9.30;59.10;;;;;;5121200;28;20082;-66
2022/03/17 08:12:31;;;;;;;22.92;15.25;;;9.40;58.90;;;;;;5121136;28;20028;-66
2022/03/17 08:14:58;;;;;;;22.58;15.77;;;9.50;58.60;;;;;;5121130;28;20032;-66
2022/03/17 08:17:24;;;;;;;22.73;14.30;;;9.60;58.30;;;;;;5121082;27;20277;-66
2022/03/17 08:19:50;;;;;;;21.38;15.90;;;9.70;58.00;;;;;;5121117;28;20083;-67
2022/03/17 08:22:16;;;;;;;24.02;17.23;;;9.70;57.90;;;;;;5121000;28;20039;-66
2022/03/17 08:24:42;;;;;;;24.35;16.73;;;9.70;58.40;;;;;;5120895;28;20427;-66
2022/03/17 08:27:08;;;;;;;25.98;16.95;;;9.70;59.00;;;;;;5120947;28;20023;-67
2022/03/17 08:29:34;;;;;;;25.42;16.27;;;9.70;58.30;;;;;;5119560;28;20027;-66
2022/03/17 08:32:00;;;;;;;23.80;16.15;;;9.80;57.90;;;;;;5120821;28;20012;-67
2022/03/17 08:34:26;;;;;;;27.00;16.83;;;9.90;57.70;;;;;;5120795;28;20548;-66
2022/03/17 08:36:56;;;;;;;23.85;16.50;;;9.90;57.10;;;;;;5120774;28;20091;-67
2022/03/17 08:39:22;;;;;;;21.73;15.07;;;9.90;57.30;;;;;;5119954;28;20020;-66
2022/03/17 08:41:48;;;;;;;22.02;15.75;;;10.10;55.10;;;;;;5120682;28;20219;-67
2022/03/17 08:44:13;;;;;;;21.38;13.98;;;10.20;54.40;;;;;;5120380;28;20059;-67
2022/03/17 08:49:23;;;;;;;20.40;14.65;;;10.40;52.70;;;;;;5120600;28;20026;-66
2022/03/17 08:51:56;;;;;;;19.73;13.60;;;10.40;52.50;;;;;;5120575;28;20295;-67
2022/03/17 08:54:24;;;;;;;23.33;14.68;;;10.50;52.20;;;;;;5120565;28;20072;-66
2022/03/17 08:57:00;;;;;;;21.33;14.35;;;10.40;52.20;;;;;;5120539;28;20015;-66
2022/03/17 08:59:33;;;;;;;19.52;14.55;;;10.50;51.60;;;;;;5120491;28;20039;-67
2022/03/17 09:02:00;;;;;;;25.17;15.18;;;10.60;51.50;;;;;;5120518;28;20028;-68
2022/03/17 09:04:27;;;;;;;19.55;13.50;;;10.60;51.20;;;;;;5120391;28;20027;-66
2022/03/17 09:06:59;;;;;;;21.48;14.88;;;10.60;51.00;;;;;;5120348;28;20011;-67
2022/03/17 09:09:28;;;;;;;20.35;13.95;;;10.60;51.20;;;;;;5120321;28;20023;-67
2022/03/17 09:11:55;;;;;;;21.42;14.60;;;10.70;51.00;;;;;;5120336;28;20019;-66
2022/03/17 09:14:21;;;;;;;20.52;13.60;;;10.70;50.80;;;;;;5120314;28;20038;-66
2022/03/17 09:16:47;;;;;;;22.23;14.43;;;10.70;50.80;;;;;;5120311;28;20027;-65
2022/03/17 09:19:13;;;;;;;20.25;14.85;;;10.70;50.90;;;;;;5120299;28;20027;-67
2022/03/17 09:21:39;;;;;;;20.40;13.57;;;10.70;50.60;;;;;;5120259;28;20028;-67
2022/03/17 09:24:05;;;;;;;22.48;14.23;;;10.70;50.50;;;;;;5120144;28;20023;-66
2022/03/17 09:26:31;;;;;;;20.95;14.40;;;10.80;50.60;;;;;;5120158;28;20031;-67
2022/03/17 09:28:58;;;;;;;23.13;16.00;;;10.80;50.50;;;;;;5120157;28;20034;-66
2022/03/17 09:31:24;;;;;;;23.00;15.27;;;10.80;50.60;;;;;;5120215;28;20023;-67
2022/03/17 09:33:49;;;;;;;24.60;14.82;;;10.80;50.40;;;;;;5120121;28;20031;-66
2022/03/17 09:36:16;;;;;;;21.30;14.88;;;10.80;50.30;;;;;;5120157;28;20336;-66
2022/03/17 09:38:42;;;;;;;19.38;14.13;;;10.90;50.20;;;;;;5120098;28;20076;-67
2022/03/17 09:41:24;;;;;;;18.98;14.07;;;10.90;50.30;;;;;;5120112;28;20220;-66
2022/03/17 09:43:52;;;;;;;23.33;14.90;;;10.90;50.10;;;;;;5119937;28;20328;-66
2022/03/17 09:46:21;;;;;;;23.67;13.93;;;11.00;50.00;;;;;;5120037;28;20027;-66
2022/03/17 09:48:52;;;;;;;22.88;14.80;;;11.00;49.90;;;;;;5119980;28;20024;-66
2022/03/17 09:51:21;;;;;;;21.52;13.88;;;11.00;49.80;;;;;;5122305;28;20104;-66
2022/03/17 09:53:47;;;;;;;23.83;14.43;;;11.10;49.90;;;;;;5123867;28;20035;-66
2022/03/17 09:56:13;;;;;;;20.38;13.65;;;11.10;49.80;;;;;;5123874;28;20023;-66
2022/03/17 09:58:39;;;;;;;22.92;15.52;;;11.10;49.80;;;;;;5123795;28;20039;-66
2022/03/17 10:01:07;;;;;;;19.83;14.27;;;11.20;49.80;;;;;;5123770;27;20023;-67
2022/03/17 10:03:34;;;;;;;20.90;15.00;;;11.10;49.70;;;;;;5123665;28;20054;-66
2022/03/17 10:06:05;;;;;;;21.52;15.15;;;11.20;49.70;;;;;;5123640;28;20038;-67
2022/03/17 10:08:33;;;;;;;21.75;14.43;;;11.20;49.60;;;;;;5123598;27;20020;-67
2022/03/17 10:10:59;;;;;;;22.13;13.60;;;11.20;49.60;;;;;;5123665;28;20020;-67
2022/03/17 10:13:26;;;;;;;20.17;14.85;;;11.20;49.50;;;;;;5122220;28;20252;-67
2022/03/17 10:16:10;;;;;;;20.00;14.00;;;11.20;49.60;;;;;;5123539;27;20031;-68
2022/03/17 10:18:37;;;;;;;21.27;14.15;;;11.30;49.60;;;;;;5122177;28;20220;-67
2022/03/17 10:21:24;;;;;;;23.10;15.75;;;11.30;49.40;;;;;;5123444;28;20489;-67
2022/03/17 10:23:49;;;;;;;23.77;15.20;;;11.30;49.50;;;;;;5123350;28;20031;-68
2022/03/17 10:26:40;;;;;;;22.20;14.23;;;11.30;49.40;;;;;;5123156;28;20031;-67
2022/03/17 10:29:19;;;;;;;20.77;14.48;;;11.30;49.50;;;;;;5123231;28;20019;-66
2022/03/17 10:31:52;;;;;;;22.73;15.15;;;11.30;49.50;;;;;;5123167;28;20536;-67
2022/03/17 10:34:19;;;;;;;21.55;13.55;;;11.40;49.30;;;;;;5123110;28;20024;-67
2022/03/17 10:36:45;;;;;;;22.08;14.77;;;11.30;49.40;;;;;;5121801;28;20216;-67
2022/03/17 10:39:12;;;;;;;24.38;14.52;;;11.40;49.40;;;;;;5123074;27;20087;-66
2022/03/17 10:41:46;;;;;;;21.13;14.73;;;11.40;49.40;;;;;;5123016;28;20047;-66
2022/03/17 10:44:13;;;;;;;23.92;14.43;;;11.40;49.40;;;;;;5122727;28;20098;-67
2022/03/17 10:46:54;;;;;;;21.13;14.18;;;11.40;49.40;;;;;;5122845;28;20036;-66
2022/03/17 10:49:20;;;;;;;23.10;14.60;;;11.40;49.40;;;;;;5122871;27;20031;-66
2022/03/17 10:51:46;;;;;;;26.10;16.02;;;11.40;49.30;;;;;;5122731;28;20027;-66
2022/03/17 10:54:20;;;;;;;23.95;15.35;;;11.40;49.30;;;;;;5122721;28;20023;-66
2022/03/17 10:57:02;;;;;;;24.13;15.23;;;11.40;49.40;;;;;;5122720;28;20028;-67
2022/03/17 10:59:44;;;;;;;22.70;15.15;;;11.50;49.30;;;;;;5122714;28;20032;-66
2022/03/17 11:02:13;;;;;;;22.80;14.70;;;11.50;49.20;;;;;;5121697;28;20212;-66
2022/03/17 11:04:41;;;;;;;22.45;14.25;;;11.50;49.20;;;;;;5122443;28;20026;-66
2022/03/17 11:07:15;;;;;;;22.48;15.60;;;11.50;49.10;;;;;;5122520;28;20027;-66
2022/03/17 11:09:42;;;;;;;23.92;14.75;;;11.50;49.10;;;;;;5122453;28;20019;-67
2022/03/17 11:12:12;;;;;;;21.05;14.13;;;11.50;49.10;;;;;;5122387;28;20019;-66
2022/03/17 11:14:45;;;;;;;22.73;14.73;;;11.60;49.00;;;;;;5122333;28;20031;-67
2022/03/17 11:17:16;;;;;;;24.38;15.27;;;11.60;49.10;;;;;;5122348;28;20024;-66
2022/03/17 11:19:43;;;;;;;27.73;14.68;;;11.60;48.90;;;;;;5122220;28;20292;-66
2022/03/17 11:22:22;;;;;;;23.08;15.20;;;11.60;49.00;;;;;;5122228;28;20095;-66
2022/03/17 11:25:28;;;;;;;24.05;15.32;;;11.60;48.80;;;;;;5122105;28;20084;-66
2022/03/17 11:27:58;;;;;;;22.83;14.98;;;11.60;48.90;;;;;;5122106;28;20087;-65
2022/03/17 11:30:29;;;;;;;22.80;15.13;;;11.60;48.90;;;;;;5121995;28;20031;-67
2022/03/17 11:32:58;;;;;;;24.10;15.45;;;11.60;48.80;;;;;;5122052;28;20319;-67
2022/03/17 11:35:29;;;;;;;24.52;16.13;;;11.60;48.80;;;;;;5121936;27;20023;-66
2022/03/17 11:38:14;;;;;;;25.45;15.88;;;11.70;48.80;;;;;;5121924;28;20019;-67
2022/03/17 11:41:07;;;;;;;22.63;15.00;;;11.70;48.80;;;;;;5121808;28;20018;-66
2022/03/17 11:44:00;;;;;;;27.73;16.83;;;11.70;48.80;;;;;;5121806;28;20323;-66
2022/03/17 11:46:37;;;;;;;22.80;15.18;;;11.70;48.70;;;;;;5121693;28;20100;-68
2022/03/17 11:49:21;;;;;;;23.33;15.38;;;11.70;48.80;;;;;;5121716;28;20027;-67
2022/03/17 11:52:02;;;;;;;23.70;16.00;;;11.70;48.70;;;;;;5121636;28;20035;-67
2022/03/17 11:54:30;;;;;;;22.52;15.30;;;11.70;48.70;;;;;;5121502;28;20328;-67
2022/03/17 11:57:04;;;;;;;21.52;14.38;;;11.70;48.60;;;;;;5121569;28;20023;-66
2022/03/17 11:59:55;;;;;;;22.98;14.93;;;11.70;48.70;;;;;;5121534;28;20072;-67
2022/03/17 12:02:29;;;;;;;25.80;16.23;;;11.70;48.60;;;;;;5121482;28;20027;-67
2022/03/17 12:04:54;;;;;;;21.33;15.27;;;11.70;48.60;;;;;;5121322;28;20061;-67
2022/03/17 12:07:20;;;;;;;24.35;14.23;;;11.70;48.60;;;;;;5121308;28;20247;-69
2022/03/17 12:09:47;;;;;;;24.02;14.45;;;11.70;48.60;;;;;;5121295;28;20038;-68
2022/03/17 12:12:27;;;;;;;23.58;15.65;;;11.70;48.50;;;;;;5121176;28;20011;-67
2022/03/17 12:15:00;;;;;;;25.27;16.58;;;11.70;48.50;;;;;;5121250;28;20034;-66
2022/03/17 12:17:29;;;;;;;22.27;15.10;;;11.80;48.50;;;;;;5119982;28;20051;-66
2022/03/17 12:20:11;;;;;;;;;;;11.80;48.50;;;;;;5121572;27;20080;-67
2022/03/17 12:22:43;;;;;;;26.85;16.80;;;11.80;48.40;;;;;;5121287;28;19915;-67
2022/03/17 12:25:20;;;;;;;24.23;16.42;;;11.80;48.30;;;;;;5121053;27;20046;-66
2022/03/17 12:27:53;;;;;;;30.00;16.33;;;11.80;48.30;;;;;;5120972;28;20030;-67
2022/03/17 12:30:20;;;;;;;25.80;16.35;;;11.80;48.30;;;;;;5120966;28;20348;-67
2022/03/17 12:32:51;;;;;;;23.13;16.13;;;11.80;48.20;;;;;;5120937;28;20032;-66
2022/03/17 12:35:20;;;;;;;23.30;15.07;;;11.90;48.30;;;;;;5121174;28;20077;-67
2022/03/17 12:37:46;;;;;;;25.15;16.83;;;11.90;48.20;;;;;;5121144;28;20092;-67
2022/03/17 12:40:18;;;;;;;27.65;16.45;;;11.90;48.20;;;;;;5120733;28;20090;-66
2022/03/17 12:42:46;;;;;;;22.98;14.73;;;11.90;48.20;;;;;;5120794;28;20030;-67
2022/03/17 12:45:13;;;;;;;24.27;15.55;;;11.90;48.10;;;;;;5120531;28;20045;-67
2022/03/17 12:47:41;;;;;;;24.98;16.17;;;11.90;48.10;;;;;;5120683;28;20373;-67
2022/03/17 12:50:13;;;;;;;28.20;17.42;;;11.90;48.00;;;;;;5120687;28;20586;-66
2022/03/17 12:52:41;;;;;;;27.70;17.00;;;12.00;48.10;;;;;;5120626;28;20071;-67
2022/03/17 12:55:12;;;;;;;25.67;16.05;;;11.90;48.00;;;;;;5120625;28;20391;-67